sensor_id;sensor_type;location;lat;lon;timestamp;P1;durP1;ratioP1;P2;durP2;ratioP2
55316;SDS011;41178;48.956;8.130;2022-10-16T00:01:54;5.67;;;2.20;;
55316;SDS011;41178;48.956;8.130;2022-10-16T00:03:56;3.03;;;2.30;;
55316;SDS011;41178;48.956;8.130;2022-10-16T00:06:00;3.23;;;2.50;;
55316;SDS011;41178;48.956;8.130;2022-10-16T00:08:02;4.23;;;2.23;;
55316;SDS011;41178;48.956;8.130;2022-10-16T00:10:04;3.03;;;2.53;;
55316;SDS011;41178;48.956;8.130;2022-10-16T00:12:05;3.23;;;2.50;;
55316;SDS011;41178;48.956;8.130;2022-10-16T00:14:09;5.17;;;2.30;;
55316;SDS011;41178;48.956;8.130;2022-10-16T00:16:13;2.60;;;2.20;;
55316;SDS011;41178;48.956;8.130;2022-10-16T00:18:16;3.87;;;2.60;;
55316;SDS011;41178;48.956;8.130;2022-10-16T00:20:18;5.63;;;2.33;;
55316;SDS011;41178;48.956;8.130;2022-10-16T00:22:19;2.90;;;2.17;;
55316;SDS011;41178;48.956;8.130;2022-10-16T00:24:21;2.47;;;2.27;;
55316;SDS011;41178;48.956;8.130;2022-10-16T00:26:22;3.27;;;2.50;;
55316;SDS011;41178;48.956;8.130;2022-10-16T00:28:25;3.73;;;2.47;;
55316;SDS011;41178;48.956;8.130;2022-10-16T00:30:26;6.37;;;2.43;;
55316;SDS011;41178;48.956;8.130;2022-10-16T00:32:29;8.20;;;2.70;;
55316;SDS011;41178;48.956;8.130;2022-10-16T00:34:30;2.40;;;2.20;;
55316;SDS011;41178;48.956;8.130;2022-10-16T00:36:32;4.63;;;2.23;;
55316;SDS011;41178;48.956;8.130;2022-10-16T00:38:34;4.00;;;2.23;;
55316;SDS011;41178;48.956;8.130;2022-10-16T00:40:36;3.40;;;2.40;;
55316;SDS011;41178;48.956;8.130;2022-10-16T00:42:37;2.70;;;2.20;;
55316;SDS011;41178;48.956;8.130;2022-10-16T00:46:45;4.30;;;2.27;;
55316;SDS011;41178;48.956;8.130;2022-10-16T00:48:48;7.93;;;2.13;;
55316;SDS011;41178;48.956;8.130;2022-10-16T00:50:51;3.27;;;1.93;;
55316;SDS011;41178;48.956;8.130;2022-10-16T00:52:54;4.70;;;2.20;;
55316;SDS011;41178;48.956;8.130;2022-10-16T00:54:57;4.53;;;2.00;;
55316;SDS011;41178;48.956;8.130;2022-10-16T00:57:00;4.40;;;2.10;;
55316;SDS011;41178;48.956;8.130;2022-10-16T00:59:05;6.07;;;2.20;;
55316;SDS011;41178;48.956;8.130;2022-10-16T01:01:13;2.53;;;2.23;;
55316;SDS011;41178;48.956;8.130;2022-10-16T01:03:23;3.97;;;2.07;;
55316;SDS011;41178;48.956;8.130;2022-10-16T01:05:28;3.03;;;1.90;;
55316;SDS011;41178;48.956;8.130;2022-10-16T01:17:02;3.20;;;1.90;;
55316;SDS011;41178;48.956;8.130;2022-10-16T01:21:13;2.57;;;2.20;;
55316;SDS011;41178;48.956;8.130;2022-10-16T01:28:08;2.83;;;2.07;;
55316;SDS011;41178;48.956;8.130;2022-10-16T01:30:15;3.37;;;2.17;;
55316;SDS011;41178;48.956;8.130;2022-10-16T01:32:40;2.83;;;2.20;;
55316;SDS011;41178;48.956;8.130;2022-10-16T01:34:48;4.43;;;1.97;;
55316;SDS011;41178;48.956;8.130;2022-10-16T01:36:51;2.50;;;2.07;;
55316;SDS011;41178;48.956;8.130;2022-10-16T01:38:59;5.37;;;1.83;;
55316;SDS011;41178;48.956;8.130;2022-10-16T01:41:16;2.10;;;1.90;;
55316;SDS011;41178;48.956;8.130;2022-10-16T01:43:27;4.87;;;1.90;;
55316;SDS011;41178;48.956;8.130;2022-10-16T01:45:34;3.63;;;1.93;;
55316;SDS011;41178;48.956;8.130;2022-10-16T01:47:37;3.20;;;2.10;;
55316;SDS011;41178;48.956;8.130;2022-10-16T01:49:41;1.90;;;1.77;;
55316;SDS011;41178;48.956;8.130;2022-10-16T01:51:47;3.67;;;2.27;;
55316;SDS011;41178;48.956;8.130;2022-10-16T01:53:53;3.87;;;2.20;;
55316;SDS011;41178;48.956;8.130;2022-10-16T01:55:58;6.27;;;2.40;;
55316;SDS011;41178;48.956;8.130;2022-10-16T01:58:02;3.90;;;2.50;;
55316;SDS011;41178;48.956;8.130;2022-10-16T02:00:10;3.27;;;2.00;;
55316;SDS011;41178;48.956;8.130;2022-10-16T02:02:14;7.37;;;2.30;;
55316;SDS011;41178;48.956;8.130;2022-10-16T02:04:23;5.47;;;2.20;;
55316;SDS011;41178;48.956;8.130;2022-10-16T02:06:29;2.53;;;2.20;;
55316;SDS011;41178;48.956;8.130;2022-10-16T02:08:31;3.57;;;2.33;;
55316;SDS011;41178;48.956;8.130;2022-10-16T02:10:34;4.00;;;2.60;;
55316;SDS011;41178;48.956;8.130;2022-10-16T02:12:38;3.33;;;2.40;;
55316;SDS011;41178;48.956;8.130;2022-10-16T02:14:44;7.80;;;2.00;;
55316;SDS011;41178;48.956;8.130;2022-10-16T02:16:46;5.17;;;2.30;;
55316;SDS011;41178;48.956;8.130;2022-10-16T02:18:47;4.43;;;2.50;;
55316;SDS011;41178;48.956;8.130;2022-10-16T02:20:55;3.33;;;2.60;;
55316;SDS011;41178;48.956;8.130;2022-10-16T02:22:57;2.33;;;2.10;;
55316;SDS011;41178;48.956;8.130;2022-10-16T02:25:05;3.33;;;2.23;;
55316;SDS011;41178;48.956;8.130;2022-10-16T02:27:55;4.63;;;2.60;;
55316;SDS011;41178;48.956;8.130;2022-10-16T02:29:49;4.50;;;2.53;;
55316;SDS011;41178;48.956;8.130;2022-10-16T02:31:56;3.27;;;2.10;;
55316;SDS011;41178;48.956;8.130;2022-10-16T02:34:02;2.17;;;2.00;;
55316;SDS011;41178;48.956;8.130;2022-10-16T02:36:07;2.57;;;2.00;;
55316;SDS011;41178;48.956;8.130;2022-10-16T02:38:09;4.17;;;2.10;;
55316;SDS011;41178;48.956;8.130;2022-10-16T02:40:11;4.37;;;2.47;;
55316;SDS011;41178;48.956;8.130;2022-10-16T02:42:13;2.80;;;2.30;;
55316;SDS011;41178;48.956;8.130;2022-10-16T02:44:16;2.60;;;2.00;;
55316;SDS011;41178;48.956;8.130;2022-10-16T02:46:17;6.33;;;2.37;;
55316;SDS011;41178;48.956;8.130;2022-10-16T02:48:20;6.87;;;2.33;;
55316;SDS011;41178;48.956;8.130;2022-10-16T02:50:21;6.47;;;2.60;;
55316;SDS011;41178;48.956;8.130;2022-10-16T02:52:23;3.43;;;2.17;;
55316;SDS011;41178;48.956;8.130;2022-10-16T02:54:25;5.27;;;2.50;;
55316;SDS011;41178;48.956;8.130;2022-10-16T02:56:27;3.40;;;2.10;;
55316;SDS011;41178;48.956;8.130;2022-10-16T02:58:28;3.13;;;2.53;;
55316;SDS011;41178;48.956;8.130;2022-10-16T03:00:30;3.83;;;2.10;;
55316;SDS011;41178;48.956;8.130;2022-10-16T03:02:32;4.80;;;2.03;;
55316;SDS011;41178;48.956;8.130;2022-10-16T03:04:33;5.53;;;2.63;;
55316;SDS011;41178;48.956;8.130;2022-10-16T03:06:35;3.93;;;2.23;;
55316;SDS011;41178;48.956;8.130;2022-10-16T03:08:36;2.37;;;2.17;;
55316;SDS011;41178;48.956;8.130;2022-10-16T03:10:38;3.33;;;2.00;;
55316;SDS011;41178;48.956;8.130;2022-10-16T03:12:40;3.57;;;2.30;;
55316;SDS011;41178;48.956;8.130;2022-10-16T03:14:41;8.53;;;2.33;;
55316;SDS011;41178;48.956;8.130;2022-10-16T03:16:43;3.60;;;2.30;;
55316;SDS011;41178;48.956;8.130;2022-10-16T03:18:47;3.63;;;2.40;;
55316;SDS011;41178;48.956;8.130;2022-10-16T03:20:50;3.80;;;2.40;;
55316;SDS011;41178;48.956;8.130;2022-10-16T03:22:52;2.90;;;2.60;;
55316;SDS011;41178;48.956;8.130;2022-10-16T03:24:53;2.87;;;2.50;;
55316;SDS011;41178;48.956;8.130;2022-10-16T03:26:55;3.63;;;2.20;;
55316;SDS011;41178;48.956;8.130;2022-10-16T03:28:57;2.87;;;2.53;;
55316;SDS011;41178;48.956;8.130;2022-10-16T03:30:58;3.10;;;2.40;;
55316;SDS011;41178;48.956;8.130;2022-10-16T03:33:00;4.70;;;2.40;;
55316;SDS011;41178;48.956;8.130;2022-10-16T03:35:02;4.37;;;2.37;;
55316;SDS011;41178;48.956;8.130;2022-10-16T03:37:03;2.80;;;2.53;;
55316;SDS011;41178;48.956;8.130;2022-10-16T03:39:05;2.93;;;2.10;;
55316;SDS011;41178;48.956;8.130;2022-10-16T03:41:06;5.33;;;2.43;;
55316;SDS011;41178;48.956;8.130;2022-10-16T03:43:09;5.13;;;2.50;;
55316;SDS011;41178;48.956;8.130;2022-10-16T03:45:10;4.07;;;2.27;;
55316;SDS011;41178;48.956;8.130;2022-10-16T03:47:12;3.73;;;2.40;;
55316;SDS011;41178;48.956;8.130;2022-10-16T03:49:14;3.90;;;2.53;;
55316;SDS011;41178;48.956;8.130;2022-10-16T03:51:15;5.27;;;2.43;;
55316;SDS011;41178;48.956;8.130;2022-10-16T03:53:17;4.17;;;2.50;;
55316;SDS011;41178;48.956;8.130;2022-10-16T03:55:19;2.70;;;2.10;;
55316;SDS011;41178;48.956;8.130;2022-10-16T03:57:20;5.80;;;3.17;;
55316;SDS011;41178;48.956;8.130;2022-10-16T03:59:22;3.90;;;3.20;;
55316;SDS011;41178;48.956;8.130;2022-10-16T04:01:24;7.73;;;3.10;;
55316;SDS011;41178;48.956;8.130;2022-10-16T04:03:25;4.93;;;2.70;;
55316;SDS011;41178;48.956;8.130;2022-10-16T04:05:27;4.77;;;2.70;;
55316;SDS011;41178;48.956;8.130;2022-10-16T04:07:29;4.17;;;2.20;;
55316;SDS011;41178;48.956;8.130;2022-10-16T04:09:30;5.07;;;2.67;;
55316;SDS011;41178;48.956;8.130;2022-10-16T04:11:32;5.00;;;2.57;;
55316;SDS011;41178;48.956;8.130;2022-10-16T04:13:33;2.63;;;2.40;;
55316;SDS011;41178;48.956;8.130;2022-10-16T04:15:35;5.43;;;2.73;;
55316;SDS011;41178;48.956;8.130;2022-10-16T04:17:37;4.30;;;2.67;;
55316;SDS011;41178;48.956;8.130;2022-10-16T04:19:38;3.50;;;2.40;;
55316;SDS011;41178;48.956;8.130;2022-10-16T04:21:40;5.03;;;2.70;;
55316;SDS011;41178;48.956;8.130;2022-10-16T04:23:42;3.50;;;2.47;;
55316;SDS011;41178;48.956;8.130;2022-10-16T04:25:44;4.03;;;2.47;;
55316;SDS011;41178;48.956;8.130;2022-10-16T04:27:45;6.40;;;2.60;;
55316;SDS011;41178;48.956;8.130;2022-10-16T04:29:47;2.63;;;2.43;;
55316;SDS011;41178;48.956;8.130;2022-10-16T04:31:48;3.60;;;2.70;;
55316;SDS011;41178;48.956;8.130;2022-10-16T04:33:50;6.70;;;2.73;;
55316;SDS011;41178;48.956;8.130;2022-10-16T04:35:58;5.83;;;2.70;;
55316;SDS011;41178;48.956;8.130;2022-10-16T04:38:00;4.80;;;3.10;;
55316;SDS011;41178;48.956;8.130;2022-10-16T04:40:02;4.00;;;2.47;;
55316;SDS011;41178;48.956;8.130;2022-10-16T04:42:04;6.23;;;2.67;;
55316;SDS011;41178;48.956;8.130;2022-10-16T04:44:05;4.87;;;2.63;;
55316;SDS011;41178;48.956;8.130;2022-10-16T04:46:07;4.47;;;2.70;;
55316;SDS011;41178;48.956;8.130;2022-10-16T04:48:08;3.70;;;2.63;;
55316;SDS011;41178;48.956;8.130;2022-10-16T04:50:10;4.13;;;2.47;;
55316;SDS011;41178;48.956;8.130;2022-10-16T04:52:13;7.53;;;2.80;;
55316;SDS011;41178;48.956;8.130;2022-10-16T04:54:14;5.53;;;2.70;;
55316;SDS011;41178;48.956;8.130;2022-10-16T04:56:16;3.37;;;2.33;;
55316;SDS011;41178;48.956;8.130;2022-10-16T04:58:18;4.17;;;2.37;;
55316;SDS011;41178;48.956;8.130;2022-10-16T05:00:19;4.77;;;2.30;;
55316;SDS011;41178;48.956;8.130;2022-10-16T05:02:21;4.60;;;3.10;;
55316;SDS011;41178;48.956;8.130;2022-10-16T05:04:23;3.57;;;2.73;;
55316;SDS011;41178;48.956;8.130;2022-10-16T05:06:25;3.17;;;2.70;;
55316;SDS011;41178;48.956;8.130;2022-10-16T05:08:26;9.13;;;2.80;;
55316;SDS011;41178;48.956;8.130;2022-10-16T05:10:28;3.97;;;2.90;;
55316;SDS011;41178;48.956;8.130;2022-10-16T05:12:29;7.23;;;2.67;;
55316;SDS011;41178;48.956;8.130;2022-10-16T05:14:31;3.00;;;2.70;;
55316;SDS011;41178;48.956;8.130;2022-10-16T05:16:33;5.27;;;2.57;;
55316;SDS011;41178;48.956;8.130;2022-10-16T05:18:34;3.30;;;2.80;;
55316;SDS011;41178;48.956;8.130;2022-10-16T05:20:36;4.37;;;2.30;;
55316;SDS011;41178;48.956;8.130;2022-10-16T05:22:38;3.30;;;2.63;;
55316;SDS011;41178;48.956;8.130;2022-10-16T05:24:39;3.00;;;2.70;;
55316;SDS011;41178;48.956;8.130;2022-10-16T05:26:41;4.57;;;2.73;;
55316;SDS011;41178;48.956;8.130;2022-10-16T05:28:43;3.97;;;2.67;;
55316;SDS011;41178;48.956;8.130;2022-10-16T05:30:44;6.40;;;3.10;;
55316;SDS011;41178;48.956;8.130;2022-10-16T05:32:47;3.43;;;2.37;;
55316;SDS011;41178;48.956;8.130;2022-10-16T05:34:50;5.67;;;3.43;;
55316;SDS011;41178;48.956;8.130;2022-10-16T05:36:52;5.93;;;3.10;;
55316;SDS011;41178;48.956;8.130;2022-10-16T05:38:54;5.13;;;2.70;;
55316;SDS011;41178;48.956;8.130;2022-10-16T05:40:55;3.73;;;2.73;;
55316;SDS011;41178;48.956;8.130;2022-10-16T05:42:57;4.27;;;3.70;;
55316;SDS011;41178;48.956;8.130;2022-10-16T05:44:59;4.57;;;3.23;;
55316;SDS011;41178;48.956;8.130;2022-10-16T05:47:01;7.43;;;2.57;;
55316;SDS011;41178;48.956;8.130;2022-10-16T05:49:03;5.97;;;3.13;;
55316;SDS011;41178;48.956;8.130;2022-10-16T05:51:05;7.03;;;2.97;;
55316;SDS011;41178;48.956;8.130;2022-10-16T05:53:09;5.37;;;2.80;;
55316;SDS011;41178;48.956;8.130;2022-10-16T05:55:11;4.40;;;2.40;;
55316;SDS011;41178;48.956;8.130;2022-10-16T05:57:13;4.30;;;2.50;;
55316;SDS011;41178;48.956;8.130;2022-10-16T05:59:15;8.80;;;2.77;;
55316;SDS011;41178;48.956;8.130;2022-10-16T06:01:17;5.83;;;2.43;;
55316;SDS011;41178;48.956;8.130;2022-10-16T06:03:22;7.57;;;3.13;;
55316;SDS011;41178;48.956;8.130;2022-10-16T06:05:24;7.23;;;2.93;;
55316;SDS011;41178;48.956;8.130;2022-10-16T06:07:27;4.37;;;2.60;;
55316;SDS011;41178;48.956;8.130;2022-10-16T06:09:29;7.30;;;3.27;;
55316;SDS011;41178;48.956;8.130;2022-10-16T06:11:32;3.43;;;2.80;;
55316;SDS011;41178;48.956;8.130;2022-10-16T06:13:35;4.67;;;2.73;;
55316;SDS011;41178;48.956;8.130;2022-10-16T06:15:37;5.93;;;3.20;;
55316;SDS011;41178;48.956;8.130;2022-10-16T06:17:40;6.00;;;3.47;;
55316;SDS011;41178;48.956;8.130;2022-10-16T06:19:41;3.50;;;3.20;;
55316;SDS011;41178;48.956;8.130;2022-10-16T06:21:43;5.03;;;2.97;;
55316;SDS011;41178;48.956;8.130;2022-10-16T06:23:45;3.80;;;2.97;;
55316;SDS011;41178;48.956;8.130;2022-10-16T06:25:47;5.47;;;2.63;;
55316;SDS011;41178;48.956;8.130;2022-10-16T06:27:49;5.93;;;2.90;;
55316;SDS011;41178;48.956;8.130;2022-10-16T06:29:50;3.47;;;2.60;;
55316;SDS011;41178;48.956;8.130;2022-10-16T06:31:52;6.77;;;2.67;;
55316;SDS011;41178;48.956;8.130;2022-10-16T06:33:54;6.37;;;2.67;;
55316;SDS011;41178;48.956;8.130;2022-10-16T06:36:02;4.67;;;2.30;;
55316;SDS011;41178;48.956;8.130;2022-10-16T06:38:07;2.57;;;2.37;;
55316;SDS011;41178;48.956;8.130;2022-10-16T06:40:09;5.87;;;2.83;;
55316;SDS011;41178;48.956;8.130;2022-10-16T06:42:10;6.07;;;2.60;;
55316;SDS011;41178;48.956;8.130;2022-10-16T06:44:12;5.27;;;2.80;;
55316;SDS011;41178;48.956;8.130;2022-10-16T06:46:15;7.83;;;3.07;;
55316;SDS011;41178;48.956;8.130;2022-10-16T06:48:18;5.37;;;2.90;;
55316;SDS011;41178;48.956;8.130;2022-10-16T06:50:20;4.27;;;2.43;;
55316;SDS011;41178;48.956;8.130;2022-10-16T06:52:22;9.17;;;3.00;;
55316;SDS011;41178;48.956;8.130;2022-10-16T06:54:24;4.53;;;2.83;;
55316;SDS011;41178;48.956;8.130;2022-10-16T06:56:26;6.80;;;2.60;;
55316;SDS011;41178;48.956;8.130;2022-10-16T06:58:29;4.50;;;2.67;;
55316;SDS011;41178;48.956;8.130;2022-10-16T07:00:31;5.50;;;2.90;;
55316;SDS011;41178;48.956;8.130;2022-10-16T07:02:33;4.63;;;2.93;;
55316;SDS011;41178;48.956;8.130;2022-10-16T07:04:35;3.90;;;2.70;;
55316;SDS011;41178;48.956;8.130;2022-10-16T07:06:37;3.87;;;2.57;;
55316;SDS011;41178;48.956;8.130;2022-10-16T07:08:40;3.60;;;2.37;;
55316;SDS011;41178;48.956;8.130;2022-10-16T07:10:43;4.33;;;2.33;;
55316;SDS011;41178;48.956;8.130;2022-10-16T07:12:45;7.33;;;2.50;;
55316;SDS011;41178;48.956;8.130;2022-10-16T07:14:47;4.17;;;2.20;;
55316;SDS011;41178;48.956;8.130;2022-10-16T07:16:48;6.73;;;2.47;;
55316;SDS011;41178;48.956;8.130;2022-10-16T07:18:50;3.73;;;2.60;;
55316;SDS011;41178;48.956;8.130;2022-10-16T07:21:02;4.90;;;3.00;;
55316;SDS011;41178;48.956;8.130;2022-10-16T07:23:04;3.63;;;2.67;;
55316;SDS011;41178;48.956;8.130;2022-10-16T07:25:06;4.20;;;2.97;;
55316;SDS011;41178;48.956;8.130;2022-10-16T07:27:08;4.17;;;2.63;;
55316;SDS011;41178;48.956;8.130;2022-10-16T07:29:17;6.10;;;3.20;;
55316;SDS011;41178;48.956;8.130;2022-10-16T07:31:21;7.07;;;3.43;;
55316;SDS011;41178;48.956;8.130;2022-10-16T07:33:22;5.50;;;4.23;;
55316;SDS011;41178;48.956;8.130;2022-10-16T07:35:24;6.27;;;3.67;;
55316;SDS011;41178;48.956;8.130;2022-10-16T07:37:26;5.63;;;3.20;;
55316;SDS011;41178;48.956;8.130;2022-10-16T07:39:28;7.67;;;3.10;;
55316;SDS011;41178;48.956;8.130;2022-10-16T07:41:30;4.70;;;3.03;;
55316;SDS011;41178;48.956;8.130;2022-10-16T07:43:33;5.43;;;3.00;;
55316;SDS011;41178;48.956;8.130;2022-10-16T07:45:35;9.63;;;3.07;;
55316;SDS011;41178;48.956;8.130;2022-10-16T07:47:37;4.60;;;2.60;;
55316;SDS011;41178;48.956;8.130;2022-10-16T07:49:38;5.67;;;2.97;;
55316;SDS011;41178;48.956;8.130;2022-10-16T07:51:40;7.73;;;3.20;;
55316;SDS011;41178;48.956;8.130;2022-10-16T07:53:42;4.93;;;3.33;;
55316;SDS011;41178;48.956;8.130;2022-10-16T07:55:43;7.37;;;2.70;;
55316;SDS011;41178;48.956;8.130;2022-10-16T07:57:45;4.97;;;2.50;;
55316;SDS011;41178;48.956;8.130;2022-10-16T07:59:46;6.63;;;2.47;;
55316;SDS011;41178;48.956;8.130;2022-10-16T08:01:48;8.33;;;2.60;;
55316;SDS011;41178;48.956;8.130;2022-10-16T08:03:51;3.27;;;2.33;;
55316;SDS011;41178;48.956;8.130;2022-10-16T08:05:53;4.80;;;2.40;;
55316;SDS011;41178;48.956;8.130;2022-10-16T08:07:55;6.30;;;2.57;;
55316;SDS011;41178;48.956;8.130;2022-10-16T08:09:57;9.33;;;2.63;;
55316;SDS011;41178;48.956;8.130;2022-10-16T08:11:59;3.83;;;2.13;;
55316;SDS011;41178;48.956;8.130;2022-10-16T08:14:02;5.50;;;2.33;;
55316;SDS011;41178;48.956;8.130;2022-10-16T08:16:04;4.07;;;2.30;;
55316;SDS011;41178;48.956;8.130;2022-10-16T08:18:11;4.53;;;2.33;;
55316;SDS011;41178;48.956;8.130;2022-10-16T08:20:14;2.80;;;2.27;;
55316;SDS011;41178;48.956;8.130;2022-10-16T08:22:15;6.43;;;2.63;;
55316;SDS011;41178;48.956;8.130;2022-10-16T08:24:17;4.83;;;2.60;;
55316;SDS011;41178;48.956;8.130;2022-10-16T08:26:19;3.50;;;2.20;;
55316;SDS011;41178;48.956;8.130;2022-10-16T08:28:21;2.60;;;2.40;;
55316;SDS011;41178;48.956;8.130;2022-10-16T08:30:23;3.70;;;2.20;;
55316;SDS011;41178;48.956;8.130;2022-10-16T08:32:25;6.13;;;2.60;;
55316;SDS011;41178;48.956;8.130;2022-10-16T08:34:28;4.67;;;2.40;;
55316;SDS011;41178;48.956;8.130;2022-10-16T08:36:29;8.80;;;2.60;;
55316;SDS011;41178;48.956;8.130;2022-10-16T08:38:31;5.20;;;2.37;;
55316;SDS011;41178;48.956;8.130;2022-10-16T08:40:34;3.47;;;2.80;;
55316;SDS011;41178;48.956;8.130;2022-10-16T08:47:07;4.83;;;2.77;;
55316;SDS011;41178;48.956;8.130;2022-10-16T08:49:17;4.17;;;2.23;;
55316;SDS011;41178;48.956;8.130;2022-10-16T08:56:00;6.00;;;2.40;;
55316;SDS011;41178;48.956;8.130;2022-10-16T08:58:02;3.67;;;2.10;;
55316;SDS011;41178;48.956;8.130;2022-10-16T09:00:15;3.63;;;2.77;;
55316;SDS011;41178;48.956;8.130;2022-10-16T09:02:24;3.93;;;2.40;;
55316;SDS011;41178;48.956;8.130;2022-10-16T09:06:46;6.73;;;3.10;;
55316;SDS011;41178;48.956;8.130;2022-10-16T09:08:58;8.33;;;2.50;;
55316;SDS011;41178;48.956;8.130;2022-10-16T09:15:39;2.83;;;2.40;;
55316;SDS011;41178;48.956;8.130;2022-10-16T09:17:53;5.37;;;2.87;;
55316;SDS011;41178;48.956;8.130;2022-10-16T09:22:19;6.00;;;2.60;;
55316;SDS011;41178;48.956;8.130;2022-10-16T09:24:27;3.60;;;2.70;;
55316;SDS011;41178;48.956;8.130;2022-10-16T09:26:29;4.23;;;2.77;;
55316;SDS011;41178;48.956;8.130;2022-10-16T09:28:31;4.17;;;2.50;;
55316;SDS011;41178;48.956;8.130;2022-10-16T09:30:33;3.00;;;2.70;;
55316;SDS011;41178;48.956;8.130;2022-10-16T09:32:34;7.73;;;2.83;;
55316;SDS011;41178;48.956;8.130;2022-10-16T09:34:36;3.83;;;2.77;;
55316;SDS011;41178;48.956;8.130;2022-10-16T09:36:43;4.47;;;3.37;;
55316;SDS011;41178;48.956;8.130;2022-10-16T09:38:47;5.00;;;2.23;;
55316;SDS011;41178;48.956;8.130;2022-10-16T09:40:50;5.43;;;2.55;;
55316;SDS011;41178;48.956;8.130;2022-10-16T09:45:23;5.00;;;2.40;;
55316;SDS011;41178;48.956;8.130;2022-10-16T09:47:25;3.70;;;2.40;;
55316;SDS011;41178;48.956;8.130;2022-10-16T09:49:30;4.60;;;2.43;;
55316;SDS011;41178;48.956;8.130;2022-10-16T09:51:33;4.50;;;2.70;;
55316;SDS011;41178;48.956;8.130;2022-10-16T09:53:40;2.70;;;2.40;;
55316;SDS011;41178;48.956;8.130;2022-10-16T09:55:50;3.07;;;2.30;;
55316;SDS011;41178;48.956;8.130;2022-10-16T09:57:53;6.10;;;2.70;;
55316;SDS011;41178;48.956;8.130;2022-10-16T09:59:56;4.07;;;2.33;;
55316;SDS011;41178;48.956;8.130;2022-10-16T10:02:03;3.30;;;2.60;;
55316;SDS011;41178;48.956;8.130;2022-10-16T10:04:14;5.40;;;2.40;;
55316;SDS011;41178;48.956;8.130;2022-10-16T10:06:21;8.27;;;2.50;;
55316;SDS011;41178;48.956;8.130;2022-10-16T10:08:26;6.65;;;1.88;;
55316;SDS011;41178;48.956;8.130;2022-10-16T10:10:29;2.67;;;2.47;;
55316;SDS011;41178;48.956;8.130;2022-10-16T10:12:32;4.60;;;2.55;;
55316;SDS011;41178;48.956;8.130;2022-10-16T10:16:47;5.47;;;2.33;;
55316;SDS011;41178;48.956;8.130;2022-10-16T10:18:57;3.15;;;2.60;;
55316;SDS011;41178;48.956;8.130;2022-10-16T10:21:00;2.78;;;2.00;;
55316;SDS011;41178;48.956;8.130;2022-10-16T10:23:41;5.30;;;2.13;;
55316;SDS011;41178;48.956;8.130;2022-10-16T10:32:40;5.45;;;2.40;;
55316;SDS011;41178;48.956;8.130;2022-10-16T10:37:11;6.55;;;2.50;;
55316;SDS011;41178;48.956;8.130;2022-10-16T10:39:41;4.32;;;2.30;;
55316;SDS011;41178;48.956;8.130;2022-10-16T10:46:51;3.92;;;2.70;;
55316;SDS011;41178;48.956;8.130;2022-10-16T10:49:13;7.20;;;2.95;;
55316;SDS011;41178;48.956;8.130;2022-10-16T10:51:22;7.30;;;2.70;;
55316;SDS011;41178;48.956;8.130;2022-10-16T11:00:09;4.60;;;2.60;;
55316;SDS011;41178;48.956;8.130;2022-10-16T11:06:00;7.03;;;3.08;;
55316;SDS011;41178;48.956;8.130;2022-10-16T11:08:14;5.15;;;2.10;;
55316;SDS011;41178;48.956;8.130;2022-10-16T11:10:21;6.28;;;2.67;;
55316;SDS011;41178;48.956;8.130;2022-10-16T11:12:28;7.13;;;2.40;;
55316;SDS011;41178;48.956;8.130;2022-10-16T11:14:34;6.53;;;2.20;;
55316;SDS011;41178;48.956;8.130;2022-10-16T11:19:14;2.67;;;1.98;;
55316;SDS011;41178;48.956;8.130;2022-10-16T11:21:20;4.55;;;2.33;;
55316;SDS011;41178;48.956;8.130;2022-10-16T11:23:53;3.10;;;2.40;;
55316;SDS011;41178;48.956;8.130;2022-10-16T11:26:01;4.90;;;2.50;;
55316;SDS011;41178;48.956;8.130;2022-10-16T11:28:14;7.00;;;2.33;;
55316;SDS011;41178;48.956;8.130;2022-10-16T11:30:32;2.67;;;2.08;;
55316;SDS011;41178;48.956;8.130;2022-10-16T11:32:48;3.70;;;2.00;;
55316;SDS011;41178;48.956;8.130;2022-10-16T11:34:56;3.13;;;2.08;;
55316;SDS011;41178;48.956;8.130;2022-10-16T11:37:05;2.60;;;2.03;;
55316;SDS011;41178;48.956;8.130;2022-10-16T11:39:19;4.65;;;2.45;;
55316;SDS011;41178;48.956;8.130;2022-10-16T11:41:34;3.45;;;2.05;;
55316;SDS011;41178;48.956;8.130;2022-10-16T11:43:41;3.90;;;2.22;;
55316;SDS011;41178;48.956;8.130;2022-10-16T11:45:48;3.33;;;2.10;;
55316;SDS011;41178;48.956;8.130;2022-10-16T11:55:05;4.22;;;2.05;;
55316;SDS011;41178;48.956;8.130;2022-10-16T11:57:29;4.43;;;2.10;;
55316;SDS011;41178;48.956;8.130;2022-10-16T11:59:36;8.65;;;2.40;;
55316;SDS011;41178;48.956;8.130;2022-10-16T12:01:46;3.83;;;2.00;;
55316;SDS011;41178;48.956;8.130;2022-10-16T12:06:52;2.63;;;1.80;;
55316;SDS011;41178;48.956;8.130;2022-10-16T12:09:03;2.83;;;2.35;;
55316;SDS011;41178;48.956;8.130;2022-10-16T12:11:06;2.60;;;1.90;;
55316;SDS011;41178;48.956;8.130;2022-10-16T12:13:37;9.57;;;1.80;;
55316;SDS011;41178;48.956;8.130;2022-10-16T12:15:40;3.35;;;1.98;;
55316;SDS011;41178;48.956;8.130;2022-10-16T12:17:59;6.85;;;1.98;;
55316;SDS011;41178;48.956;8.130;2022-10-16T12:20:18;5.18;;;1.80;;
55316;SDS011;41178;48.956;8.130;2022-10-16T12:22:32;3.90;;;1.70;;
55316;SDS011;41178;48.956;8.130;2022-10-16T12:24:41;3.45;;;1.80;;
55316;SDS011;41178;48.956;8.130;2022-10-16T12:26:44;2.72;;;1.90;;
55316;SDS011;41178;48.956;8.130;2022-10-16T12:28:47;4.88;;;2.00;;
55316;SDS011;41178;48.956;8.130;2022-10-16T12:30:56;4.50;;;2.00;;
55316;SDS011;41178;48.956;8.130;2022-10-16T12:33:01;5.10;;;2.28;;
55316;SDS011;41178;48.956;8.130;2022-10-16T12:35:21;6.05;;;1.98;;
55316;SDS011;41178;48.956;8.130;2022-10-16T12:37:26;3.22;;;1.80;;
55316;SDS011;41178;48.956;8.130;2022-10-16T12:39:39;4.38;;;1.95;;
55316;SDS011;41178;48.956;8.130;2022-10-16T12:41:41;4.68;;;2.28;;
55316;SDS011;41178;48.956;8.130;2022-10-16T12:43:44;3.83;;;2.30;;
55316;SDS011;41178;48.956;8.130;2022-10-16T12:45:47;3.95;;;2.42;;
55316;SDS011;41178;48.956;8.130;2022-10-16T12:48:18;3.92;;;1.80;;
55316;SDS011;41178;48.956;8.130;2022-10-16T12:50:34;3.47;;;2.10;;
55316;SDS011;41178;48.956;8.130;2022-10-16T12:52:38;4.72;;;2.15;;
55316;SDS011;41178;48.956;8.130;2022-10-16T12:54:40;3.17;;;1.80;;
55316;SDS011;41178;48.956;8.130;2022-10-16T12:59:21;7.15;;;1.90;;
55316;SDS011;41178;48.956;8.130;2022-10-16T13:04:26;2.55;;;1.80;;
55316;SDS011;41178;48.956;8.130;2022-10-16T13:06:55;2.53;;;2.28;;
55316;SDS011;41178;48.956;8.130;2022-10-16T13:09:13;7.93;;;2.67;;
55316;SDS011;41178;48.956;8.130;2022-10-16T13:16:21;6.70;;;2.80;;
55316;SDS011;41178;48.956;8.130;2022-10-16T13:21:31;3.20;;;2.38;;
55316;SDS011;41178;48.956;8.130;2022-10-16T13:28:19;4.00;;;2.05;;
55316;SDS011;41178;48.956;8.130;2022-10-16T13:32:31;5.60;;;2.28;;
55316;SDS011;41178;48.956;8.130;2022-10-16T13:34:32;4.05;;;2.15;;
55316;SDS011;41178;48.956;8.130;2022-10-16T13:36:35;4.88;;;2.03;;
55316;SDS011;41178;48.956;8.130;2022-10-16T13:38:44;6.75;;;1.92;;
55316;SDS011;41178;48.956;8.130;2022-10-16T13:40:50;5.22;;;2.65;;
55316;SDS011;41178;48.956;8.130;2022-10-16T13:42:54;6.80;;;2.67;;
55316;SDS011;41178;48.956;8.130;2022-10-16T13:44:57;5.05;;;3.00;;
55316;SDS011;41178;48.956;8.130;2022-10-16T13:46:59;5.43;;;2.45;;
55316;SDS011;41178;48.956;8.130;2022-10-16T13:49:03;8.32;;;2.30;;
55316;SDS011;41178;48.956;8.130;2022-10-16T13:51:12;5.45;;;2.50;;
55316;SDS011;41178;48.956;8.130;2022-10-16T13:53:14;5.45;;;3.25;;
55316;SDS011;41178;48.956;8.130;2022-10-16T13:55:17;8.32;;;3.95;;
55316;SDS011;41178;48.956;8.130;2022-10-16T13:57:21;11.30;;;4.45;;
55316;SDS011;41178;48.956;8.130;2022-10-16T13:59:35;7.10;;;4.00;;
55316;SDS011;41178;48.956;8.130;2022-10-16T14:01:42;6.45;;;3.53;;
55316;SDS011;41178;48.956;8.130;2022-10-16T14:03:45;6.50;;;2.90;;
55316;SDS011;41178;48.956;8.130;2022-10-16T14:07:59;6.22;;;3.45;;
55316;SDS011;41178;48.956;8.130;2022-10-16T14:10:05;5.90;;;3.70;;
55316;SDS011;41178;48.956;8.130;2022-10-16T14:12:19;4.80;;;2.85;;
55316;SDS011;41178;48.956;8.130;2022-10-16T14:14:33;3.97;;;2.47;;